Time;durP1;ratioP1;P1;durP2;ratioP2;P2;SDS_P1;SDS_P2;PMS_P1;PMS_P2;Temp;Humidity;BMP_temperature;BMP_pressure;BME280_temperature;BME280_humidity;BME280_pressure;Samples;Min_cycle;Max_cycle;Signal;HPM_P1;HPM_P2
2022/03/15 00:01:04;;;;;;;52.42;18.80;;;4.50;51.80;;;;;;5092388;27;20112;-77
2022/03/15 00:03:32;;;;;;;55.08;19.67;;;4.70;51.90;;;;;;5101306;27;20051;-77
2022/03/15 00:06:01;;;;;;;51.25;17.17;;;4.80;51.30;;;;;;5085113;27;20074;-77
2022/03/15 00:08:29;;;;;;;49.67;18.30;;;4.90;51.70;;;;;;5100509;27;20043;-77
2022/03/15 00:10:58;;;;;;;45.83;17.23;;;5.00;50.70;;;;;;5100567;27;20517;-77
2022/03/15 00:13:30;;;;;;;45.55;17.85;;;5.00;51.70;;;;;;5082437;27;20128;-77
2022/03/15 00:16:00;;;;;;;51.50;17.43;;;5.10;50.60;;;;;;5111202;27;20110;-77
2022/03/15 00:18:30;;;;;;;48.72;17.77;;;5.00;51.60;;;;;;5100077;27;20291;-77
2022/03/15 00:20:58;;;;;;;46.70;16.85;;;5.00;51.10;;;;;;5094554;27;20058;-77
2022/03/15 00:23:25;;;;;;;40.90;15.82;;;4.90;52.00;;;;;;5116499;27;20047;-77
2022/03/15 00:25:53;;;;;;;53.40;18.00;;;5.00;51.40;;;;;;5097683;27;20039;-77
2022/03/15 00:28:22;;;;;;;56.03;17.33;;;5.00;51.90;;;;;;5102409;27;20067;-78
2022/03/15 00:30:49;;;;;;;44.92;16.92;;;5.00;51.30;;;;;;5104567;27;20043;-77
2022/03/15 00:33:17;;;;;;;40.90;16.42;;;4.90;51.40;;;;;;5095881;27;20126;-77
2022/03/15 00:35:44;;;;;;;48.45;17.80;;;4.80;52.00;;;;;;5080501;27;20031;-77
2022/03/15 00:38:11;;;;;;;48.55;18.15;;;4.70;51.80;;;;;;5103297;27;20035;-77
2022/03/15 00:40:39;;;;;;;51.00;17.42;;;4.90;52.00;;;;;;5082960;27;20055;-77
2022/03/15 00:43:07;;;;;;;48.53;16.23;;;5.00;51.40;;;;;;5083316;27;20572;-77
2022/03/15 00:45:34;;;;;;;50.38;16.25;;;4.70;51.40;;;;;;5102136;27;20500;-77
2022/03/15 00:48:02;;;;;;;43.78;17.08;;;4.90;51.50;;;;;;5101100;27;20097;-77
2022/03/15 00:50:29;;;;;;;45.03;16.13;;;5.00;51.20;;;;;;5104684;27;20043;-77
2022/03/15 00:52:57;;;;;;;40.53;15.88;;;5.00;50.60;;;;;;5099107;27;20051;-77
2022/03/15 00:55:24;;;;;;;42.58;15.65;;;5.10;50.40;;;;;;5082721;27;20476;-77
2022/03/15 00:57:51;;;;;;;42.00;16.27;;;5.00;50.70;;;;;;5099223;27;20039;-77
2022/03/15 01:00:19;;;;;;;39.20;14.43;;;5.00;51.10;;;;;;5101434;27;20044;-77
2022/03/15 01:02:48;;;;;;;36.60;14.70;;;4.80;52.30;;;;;;5105498;27;20055;-77
2022/03/15 01:05:16;;;;;;;43.00;16.10;;;4.50;51.90;;;;;;5079698;27;20039;-78
2022/03/15 01:07:43;;;;;;;37.78;14.75;;;4.40;52.50;;;;;;5096719;27;20951;-77
2022/03/15 01:10:10;;;;;;;41.22;16.40;;;4.30;52.80;;;;;;5097875;27;20622;-77
2022/03/15 01:12:38;;;;;;;44.88;15.15;;;4.60;52.90;;;;;;5100594;27;20051;-77
2022/03/15 01:15:09;;;;;;;37.95;13.57;;;4.80;52.10;;;;;;5100124;27;20047;-77
2022/03/15 01:17:37;;;;;;;39.70;15.68;;;4.60;52.50;;;;;;5098738;27;20410;-77
2022/03/15 01:20:05;;;;;;;38.80;14.25;;;4.80;52.50;;;;;;5114524;27;20096;-77
2022/03/15 01:22:36;;;;;;;41.65;14.02;;;4.90;52.10;;;;;;5104144;27;20043;-77
2022/03/15 01:25:06;;;;;;;39.42;13.80;;;4.90;51.60;;;;;;5092022;27;20050;-77
2022/03/15 01:27:36;;;;;;;41.92;16.17;;;4.60;52.70;;;;;;5101653;27;20043;-77
2022/03/15 01:30:05;;;;;;;33.90;13.00;;;4.30;53.00;;;;;;5101754;27;20473;-77
2022/03/15 01:32:32;;;;;;;34.03;12.82;;;4.50;53.10;;;;;;5104519;27;20054;-76
2022/03/15 01:34:59;;;;;;;34.40;12.75;;;4.70;52.60;;;;;;5096340;27;20036;-77
2022/03/15 01:37:27;;;;;;;34.08;12.75;;;4.60;51.80;;;;;;5097741;27;20062;-77
2022/03/15 01:39:56;;;;;;;37.80;14.00;;;4.80;51.80;;;;;;5098026;27;20044;-77
2022/03/15 01:42:23;;;;;;;33.47;12.77;;;4.70;51.40;;;;;;5097267;27;20051;-77
2022/03/15 01:44:51;;;;;;;36.60;12.27;;;4.00;53.00;;;;;;5100372;27;20055;-77
2022/03/15 01:47:19;;;;;;;29.67;11.30;;;4.30;53.20;;;;;;5098698;27;20111;-77
2022/03/15 01:49:46;;;;;;;28.63;11.85;;;4.30;52.30;;;;;;5100293;27;20051;-77
2022/03/15 01:52:15;;;;;;;29.60;11.65;;;4.60;51.80;;;;;;5102207;27;20035;-77
2022/03/15 01:54:44;;;;;;;32.42;12.35;;;4.60;52.10;;;;;;5074605;27;20482;-77
2022/03/15 01:57:13;;;;;;;32.65;11.85;;;4.70;52.10;;;;;;5097040;27;20035;-77
2022/03/15 01:59:42;;;;;;;29.05;10.13;;;4.80;51.50;;;;;;5081862;27;20035;-77
2022/03/15 02:02:10;;;;;;;26.70;9.30;;;4.80;51.30;;;;;;5098202;27;20065;-77
2022/03/15 02:04:38;;;;;;;23.40;10.05;;;4.80;51.10;;;;;;5112040;27;20565;-77
2022/03/15 02:07:13;;;;;;;27.42;10.48;;;4.70;51.00;;;;;;5099187;27;20051;-77
2022/03/15 02:09:41;;;;;;;24.80;9.35;;;4.90;50.50;;;;;;5098054;27;20128;-77
2022/03/15 02:12:09;;;;;;;24.75;8.52;;;4.90;50.40;;;;;;5113816;27;20067;-77
2022/03/15 02:14:36;;;;;;;26.17;9.02;;;4.80;51.00;;;;;;5112248;27;20054;-77
2022/03/15 02:17:04;;;;;;;25.15;9.43;;;4.70;51.40;;;;;;5101126;27;20470;-77
2022/03/15 02:19:35;;;;;;;23.35;8.98;;;4.50;52.40;;;;;;5097602;27;20140;-77
2022/03/15 02:22:03;;;;;;;20.27;7.80;;;4.40;53.00;;;;;;5114773;27;20435;-77
2022/03/15 02:24:30;;;;;;;24.90;10.05;;;4.50;52.00;;;;;;5082612;27;20076;-77
2022/03/15 02:26:57;;;;;;;21.73;8.38;;;4.60;51.90;;;;;;5096398;27;20043;-77
2022/03/15 02:29:24;;;;;;;22.98;8.57;;;4.60;52.20;;;;;;5098779;27;20034;-77
2022/03/15 02:31:51;;;;;;;27.00;9.52;;;4.60;51.90;;;;;;5114527;27;20169;-77
2022/03/15 02:34:22;;;;;;;22.17;8.57;;;4.40;51.90;;;;;;5084421;27;20041;-77
2022/03/15 02:36:49;;;;;;;25.08;8.63;;;4.60;52.30;;;;;;5081876;28;20396;-77
2022/03/15 02:39:16;;;;;;;20.02;8.25;;;4.60;52.00;;;;;;5100312;27;20139;-77
2022/03/15 02:41:43;;;;;;;19.42;8.27;;;4.60;51.50;;;;;;5100820;27;20055;-77
2022/03/15 02:44:11;;;;;;;24.45;8.35;;;4.20;52.00;;;;;;5098351;27;20054;-77
2022/03/15 02:46:39;;;;;;;19.77;7.43;;;4.30;53.10;;;;;;5097177;27;20120;-77
2022/03/15 02:49:09;;;;;;;15.65;6.90;;;4.20;52.50;;;;;;5083526;27;20452;-77
2022/03/15 02:51:36;;;;;;;21.05;8.00;;;4.40;52.80;;;;;;5081957;27;20135;-77
2022/03/15 02:54:09;;;;;;;18.58;7.82;;;4.50;52.60;;;;;;5084905;27;20101;-77
2022/03/15 02:56:43;;;;;;;23.75;8.07;;;4.50;52.40;;;;;;5082364;27;20050;-77
2022/03/15 02:59:14;;;;;;;20.05;7.72;;;4.50;52.60;;;;;;5079948;27;20527;-77
2022/03/15 03:01:42;;;;;;;19.98;7.43;;;4.30;52.80;;;;;;5097954;27;20043;-77
2022/03/15 03:04:10;;;;;;;17.00;7.45;;;3.90;53.30;;;;;;5110300;27;20043;-77
2022/03/15 03:06:38;;;;;;;22.63;7.72;;;3.90;53.40;;;;;;5114435;27;20055;-77
2022/03/15 03:09:05;;;;;;;18.05;6.97;;;3.90;53.70;;;;;;5114761;27;20092;-77
2022/03/15 03:11:32;;;;;;;23.55;7.70;;;4.00;53.60;;;;;;5113024;27;20039;-77
2022/03/15 03:14:00;;;;;;;19.90;7.88;;;4.10;53.10;;;;;;5094236;28;20079;-77
2022/03/15 03:16:29;;;;;;;20.10;8.95;;;4.10;52.70;;;;;;5079678;27;20070;-77
2022/03/15 03:18:59;;;;;;;22.52;8.48;;;3.90;52.70;;;;;;5096589;28;20521;-77
2022/03/15 03:21:27;;;;;;;24.65;9.10;;;4.20;52.60;;;;;;5098685;27;20055;-77
2022/03/15 03:23:56;;;;;;;24.13;8.48;;;4.20;52.90;;;;;;5080350;28;20043;-77
2022/03/15 03:26:24;;;;;;;20.35;7.68;;;4.10;53.30;;;;;;5095846;28;20520;-77
2022/03/15 03:28:51;;;;;;;17.90;7.20;;;4.00;53.00;;;;;;5085557;28;20130;-77
2022/03/15 03:31:19;;;;;;;19.83;7.80;;;3.70;53.70;;;;;;5098772;28;20188;-77
2022/03/15 03:33:47;;;;;;;19.77;8.20;;;3.50;54.80;;;;;;5098233;28;20053;-77
2022/03/15 03:36:14;;;;;;;20.77;7.13;;;3.50;55.00;;;;;;5089484;28;20054;-77
2022/03/15 03:38:41;;;;;;;19.27;7.35;;;3.80;54.00;;;;;;5081043;28;20063;-77
2022/03/15 03:41:09;;;;;;;21.48;7.90;;;3.80;54.10;;;;;;5096481;28;20047;-77
2022/03/15 03:43:36;;;;;;;22.27;8.55;;;3.80;54.50;;;;;;5114930;28;20126;-77
2022/03/15 03:46:03;;;;;;;21.67;8.38;;;3.90;53.80;;;;;;5097344;28;20043;-77
2022/03/15 03:48:30;;;;;;;18.23;8.07;;;3.70;53.60;;;;;;5080336;28;20047;-77
2022/03/15 03:50:58;;;;;;;21.38;8.27;;;3.70;54.60;;;;;;5080262;28;20051;-77
2022/03/15 03:53:25;;;;;;;29.00;8.75;;;3.80;54.60;;;;;;5082065;28;20665;-77
2022/03/15 03:55:52;;;;;;;23.10;8.20;;;3.80;53.60;;;;;;5093370;28;20794;-77
2022/03/15 03:58:19;;;;;;;24.55;9.32;;;3.90;54.40;;;;;;5086076;28;20108;-77
2022/03/15 04:00:46;;;;;;;24.73;9.50;;;3.90;53.80;;;;;;5082108;28;20047;-77
2022/03/15 04:03:16;;;;;;;21.00;8.57;;;3.90;53.50;;;;;;5111880;28;20054;-77
2022/03/15 04:05:47;;;;;;;19.10;8.32;;;4.00;53.50;;;;;;5092201;28;20040;-77
2022/03/15 04:08:14;;;;;;;23.70;9.18;;;3.90;53.30;;;;;;5093182;28;20043;-77
2022/03/15 04:10:42;;;;;;;21.77;8.68;;;3.90;53.70;;;;;;5108413;28;20076;-77
2022/03/15 04:13:10;;;;;;;23.15;9.25;;;3.80;53.90;;;;;;5095798;28;20047;-77
2022/03/15 04:15:37;;;;;;;25.85;10.50;;;3.60;53.80;;;;;;5079013;28;20039;-77
2022/03/15 04:18:04;;;;;;;29.90;11.45;;;3.70;54.20;;;;;;5113566;28;20725;-77
2022/03/15 04:20:32;;;;;;;29.95;10.98;;;3.60;54.20;;;;;;5097061;28;20092;-77
2022/03/15 04:22:59;;;;;;;30.83;10.80;;;3.60;55.10;;;;;;5095160;28;20101;-77
2022/03/15 04:25:26;;;;;;;24.70;11.48;;;3.60;55.00;;;;;;5088682;28;20047;-77
2022/03/15 04:27:56;;;;;;;25.52;10.05;;;3.60;54.20;;;;;;5110716;28;20044;-77
2022/03/15 04:30:24;;;;;;;31.10;10.93;;;3.70;54.00;;;;;;5111832;28;20039;-78
2022/03/15 04:32:52;;;;;;;30.15;9.48;;;3.70;54.00;;;;;;5095991;28;20077;-77
2022/03/15 04:35:19;;;;;;;30.80;11.98;;;3.80;54.10;;;;;;5099641;27;20074;-78
2022/03/15 04:37:46;;;;;;;32.53;11.60;;;3.80;53.90;;;;;;5076116;27;20063;-78
2022/03/15 04:40:17;;;;;;;33.55;11.20;;;3.90;53.40;;;;;;5116515;27;21915;-77
2022/03/15 04:42:45;;;;;;;27.08;10.95;;;3.90;53.90;;;;;;5109872;27;20042;-77
2022/03/15 04:45:12;;;;;;;31.08;10.77;;;3.90;53.90;;;;;;5100218;27;20043;-77
2022/03/15 04:47:39;;;;;;;30.55;10.98;;;3.90;53.60;;;;;;5114877;27;20063;-78
2022/03/15 04:50:07;;;;;;;32.42;12.13;;;3.80;53.80;;;;;;5100068;27;20039;-77
2022/03/15 04:52:35;;;;;;;35.97;12.40;;;3.70;54.20;;;;;;5089810;27;20039;-77
2022/03/15 04:55:04;;;;;;;37.22;12.20;;;3.70;54.40;;;;;;5117837;27;20081;-77
2022/03/15 04:57:31;;;;;;;35.33;12.60;;;3.60;54.90;;;;;;5082484;27;20054;-78
2022/03/15 04:59:59;;;;;;;30.00;11.73;;;3.60;54.60;;;;;;5115880;27;20121;-78
2022/03/15 05:02:26;;;;;;;31.13;12.70;;;3.70;54.60;;;;;;5113786;27;20063;-78
2022/03/15 05:04:54;;;;;;;33.22;10.82;;;3.60;54.60;;;;;;5102439;27;21029;-77
2022/03/15 05:07:21;;;;;;;30.65;10.32;;;3.60;55.30;;;;;;5100659;27;20051;-78
2022/03/15 05:12:36;;;;;;;28.65;11.23;;;3.50;55.10;;;;;;5098393;27;20042;-78
2022/03/15 05:15:04;;;;;;;28.55;9.88;;;3.40;55.50;;;;;;5113406;27;20108;-78
2022/03/15 05:17:31;;;;;;;23.85;9.48;;;3.30;55.00;;;;;;5085588;27;20053;-77
2022/03/15 05:19:58;;;;;;;28.02;9.73;;;3.30;55.50;;;;;;5099442;27;20045;-77
2022/03/15 05:22:26;;;;;;;25.27;9.40;;;3.50;55.40;;;;;;5098561;27;20047;-78
2022/03/15 05:24:53;;;;;;;28.33;10.93;;;3.50;55.30;;;;;;5100737;27;20063;-77
2022/03/15 05:27:20;;;;;;;26.60;10.18;;;3.30;56.00;;;;;;5096309;27;20040;-77
2022/03/15 05:29:46;;;;;;;24.17;9.80;;;3.30;56.20;;;;;;5101569;27;20043;-77
2022/03/15 05:32:14;;;;;;;28.98;9.75;;;3.40;55.60;;;;;;5084337;27;20043;-78
2022/03/15 05:34:41;;;;;;;23.98;9.65;;;3.50;55.10;;;;;;5100455;27;20693;-77
2022/03/15 05:37:08;;;;;;;26.08;10.35;;;3.60;55.60;;;;;;5101857;27;20051;-77
2022/03/15 05:39:35;;;;;;;27.52;10.23;;;3.60;55.10;;;;;;5097078;27;20658;-78
2022/03/15 05:42:03;;;;;;;28.17;10.02;;;3.30;56.00;;;;;;5100769;27;20043;-77
2022/03/15 05:44:30;;;;;;;27.58;10.82;;;3.30;56.20;;;;;;5113049;27;20066;-78
2022/03/15 05:46:57;;;;;;;27.20;10.40;;;3.40;56.60;;;;;;5099385;27;20047;-78
2022/03/15 05:49:24;;;;;;;31.30;11.50;;;3.50;56.50;;;;;;5101289;27;20039;-79
2022/03/15 05:51:54;;;;;;;27.48;10.85;;;3.50;56.50;;;;;;5116126;27;20047;-78
2022/03/15 05:54:21;;;;;;;26.30;10.00;;;3.80;55.80;;;;;;5098288;27;20487;-78
2022/03/15 05:56:48;;;;;;;30.88;10.75;;;4.00;55.10;;;;;;5100738;27;20046;-79
2022/03/15 05:59:16;;;;;;;23.98;9.90;;;4.20;54.50;;;;;;5099511;27;20061;-79
2022/03/15 06:01:43;;;;;;;24.95;9.30;;;4.30;54.00;;;;;;5098527;27;20039;-78
2022/03/15 06:04:10;;;;;;;23.98;10.15;;;4.30;53.60;;;;;;5081981;27;20043;-79
2022/03/15 06:06:38;;;;;;;23.80;9.50;;;4.30;53.90;;;;;;5114039;27;20046;-78
2022/03/15 06:09:05;;;;;;;28.67;9.80;;;4.30;54.30;;;;;;5101072;27;20043;-78
2022/03/15 06:11:34;;;;;;;22.95;8.98;;;4.40;53.80;;;;;;5117551;27;20785;-79
2022/03/15 06:14:02;;;;;;;25.08;9.70;;;4.60;53.50;;;;;;5101265;27;20061;-79
2022/03/15 06:16:29;;;;;;;22.63;9.18;;;4.80;53.30;;;;;;5097619;27;20097;-79
2022/03/15 06:18:56;;;;;;;23.63;9.85;;;5.00;52.80;;;;;;5114385;27;20039;-79
2022/03/15 06:21:23;;;;;;;28.13;9.15;;;5.00;52.60;;;;;;5113083;27;20040;-79
2022/03/15 06:23:50;;;;;;;28.25;9.73;;;5.10;52.90;;;;;;5083832;27;20472;-78
2022/03/15 06:26:34;;;;;;;22.08;9.05;;;5.10;52.90;;;;;;5100646;27;20047;-79
2022/03/15 06:29:03;;;;;;;21.45;8.82;;;5.00;52.70;;;;;;5096529;27;20069;-79
2022/03/15 06:31:34;;;;;;;23.45;8.40;;;5.20;53.00;;;;;;5080408;27;20089;-79
2022/03/15 06:34:01;;;;;;;21.15;9.68;;;5.30;52.60;;;;;;5112916;27;20046;-79
2022/03/15 06:36:29;;;;;;;23.80;9.75;;;5.50;52.20;;;;;;5084310;27;20043;-79
2022/03/15 06:38:57;;;;;;;24.23;9.48;;;5.60;52.10;;;;;;5081672;27;20640;-79
2022/03/15 06:41:24;;;;;;;23.63;9.70;;;5.60;51.90;;;;;;5084447;27;20051;-79
2022/03/15 06:43:52;;;;;;;26.45;10.10;;;5.70;51.50;;;;;;5083799;27;20039;-79
2022/03/15 06:46:19;;;;;;;28.00;10.73;;;5.50;51.50;;;;;;5103315;27;20131;-78
2022/03/15 06:48:46;;;;;;;26.88;12.10;;;5.70;52.30;;;;;;5080528;27;20043;-79
2022/03/15 06:51:13;;;;;;;29.00;11.30;;;5.90;51.40;;;;;;5113629;27;20063;-78
2022/03/15 06:53:43;;;;;;;21.55;9.73;;;5.80;51.20;;;;;;5080301;27;20045;-78
2022/03/15 06:56:10;;;;;;;21.88;9.75;;;6.00;51.40;;;;;;5099013;27;20075;-77
2022/03/15 06:58:37;;;;;;;21.60;9.15;;;6.10;50.90;;;;;;5094596;27;20419;-77
2022/03/15 07:01:05;;;;;;;21.60;8.70;;;6.20;51.10;;;;;;5095969;27;20676;-77
2022/03/15 07:03:33;;;;;;;21.13;8.07;;;6.20;50.60;;;;;;5111152;27;20043;-77
2022/03/15 07:06:01;;;;;;;20.63;8.57;;;6.30;50.80;;;;;;5114968;27;20047;-79
2022/03/15 07:08:28;;;;;;;22.70;8.85;;;6.30;51.20;;;;;;5099852;27;20116;-77
2022/03/15 07:10:55;;;;;;;23.17;8.63;;;6.40;51.10;;;;;;5098197;28;20108;-76
2022/03/15 07:13:22;;;;;;;20.05;8.40;;;6.40;50.80;;;;;;5077113;27;20055;-79
2022/03/15 07:15:49;;;;;;;15.13;7.43;;;6.40;51.40;;;;;;5083071;27;20908;-78
2022/03/15 07:18:18;;;;;;;21.70;8.45;;;6.40;50.90;;;;;;5098919;27;20573;-79
2022/03/15 07:20:46;;;;;;;16.05;7.60;;;6.40;51.20;;;;;;5078556;28;20583;-77
2022/03/15 07:23:13;;;;;;;13.52;7.60;;;6.50;50.70;;;;;;5084758;28;20080;-76
2022/03/15 07:25:40;;;;;;;20.05;8.60;;;6.60;50.10;;;;;;5098824;27;20039;-77
2022/03/15 07:28:08;;;;;;;17.73;8.15;;;6.70;49.70;;;;;;5099229;28;20046;-77
2022/03/15 07:30:35;;;;;;;15.82;7.32;;;7.00;49.40;;;;;;5099015;28;20047;-76
2022/03/15 07:33:02;;;;;;;16.70;7.68;;;7.00;48.90;;;;;;5098153;28;20088;-77
2022/03/15 07:35:29;;;;;;;17.60;7.50;;;7.00;49.10;;;;;;5098268;28;20053;-78
2022/03/15 07:37:59;;;;;;;18.45;7.85;;;7.20;48.70;;;;;;5079985;28;20146;-79
2022/03/15 07:40:27;;;;;;;20.73;9.10;;;7.10;48.30;;;;;;5113360;28;20043;-76
2022/03/15 07:42:55;;;;;;;18.23;9.32;;;7.30;48.60;;;;;;5096687;28;20041;-78
2022/03/15 07:45:23;;;;;;;19.60;8.38;;;7.50;48.20;;;;;;5078599;28;20096;-78
2022/03/15 07:47:50;;;;;;;19.90;8.05;;;7.70;48.30;;;;;;5084890;28;20065;-79
2022/03/15 07:50:18;;;;;;;21.55;9.07;;;7.70;47.10;;;;;;5095007;28;20032;-79
2022/03/15 07:52:47;;;;;;;21.02;9.57;;;7.70;47.20;;;;;;5076595;28;20134;-79
2022/03/15 07:55:14;;;;;;;18.95;8.98;;;7.90;46.60;;;;;;5096963;28;20128;-78
2022/03/15 07:57:41;;;;;;;16.33;7.63;;;8.00;47.20;;;;;;5110515;28;21441;-78
2022/03/15 08:00:10;;;;;;;20.23;8.07;;;8.00;47.20;;;;;;5097982;28;20617;-78
2022/03/15 08:02:41;;;;;;;19.75;8.30;;;8.00;46.60;;;;;;5111277;28;20039;-78
2022/03/15 08:05:09;;;;;;;23.88;9.38;;;8.10;46.60;;;;;;5097753;28;20043;-78
2022/03/15 08:07:36;;;;;;;18.60;9.70;;;8.30;47.10;;;;;;5096723;27;20482;-78
2022/03/15 08:10:08;;;;;;;18.25;9.48;;;8.40;47.30;;;;;;5096402;27;20043;-78
2022/03/15 08:12:37;;;;;;;19.90;8.95;;;8.50;46.70;;;;;;5083820;27;20058;-78
2022/03/15 08:15:05;;;;;;;16.40;8.30;;;8.70;46.10;;;;;;5102203;27;20122;-78
2022/03/15 08:17:37;;;;;;;17.48;8.00;;;8.90;45.90;;;;;;5086302;27;20051;-78
2022/03/15 08:20:05;;;;;;;19.77;8.40;;;9.00;45.50;;;;;;5099162;27;20473;-79
2022/03/15 08:22:33;;;;;;;24.25;8.75;;;9.10;45.20;;;;;;5100046;27;20031;-77
2022/03/15 08:25:02;;;;;;;20.70;9.07;;;9.30;44.40;;;;;;5083574;27;21483;-78
2022/03/15 08:27:31;;;;;;;20.00;9.05;;;9.30;45.70;;;;;;5102304;27;20043;-79
2022/03/15 08:29:58;;;;;;;21.30;9.13;;;9.50;45.30;;;;;;5083100;27;20060;-79
2022/03/15 08:32:25;;;;;;;19.95;9.35;;;9.70;44.50;;;;;;5097168;27;20057;-76
2022/03/15 08:34:54;;;;;;;20.15;8.88;;;9.80;44.40;;;;;;5085163;27;20404;-77
2022/03/15 08:37:21;;;;;;;19.00;9.10;;;9.80;45.30;;;;;;5098853;27;20477;-77
2022/03/15 08:39:48;;;;;;;21.00;8.60;;;9.90;43.60;;;;;;5083380;27;20120;-76
2022/03/15 08:42:16;;;;;;;24.55;9.65;;;10.10;43.60;;;;;;5099060;27;20486;-76
2022/03/15 08:44:43;;;;;;;16.83;7.88;;;10.20;43.40;;;;;;5084751;27;20046;-79
2022/03/15 08:47:10;;;;;;;20.50;7.88;;;10.30;43.70;;;;;;5079989;27;20054;-79
2022/03/15 08:49:38;;;;;;;21.08;8.98;;;10.40;43.20;;;;;;5087870;27;20058;-76
2022/03/15 08:52:07;;;;;;;21.83;9.13;;;10.40;44.00;;;;;;5113056;27;20043;-78
2022/03/15 08:54:35;;;;;;;15.50;7.53;;;10.60;43.30;;;;;;5083178;27;20453;-79
2022/03/15 08:57:03;;;;;;;15.93;6.85;;;10.90;41.30;;;;;;5098992;27;20875;-79
2022/03/15 08:59:30;;;;;;;14.85;7.25;;;10.90;41.70;;;;;;5101657;27;20047;-78
2022/03/15 09:01:59;;;;;;;18.08;7.10;;;11.10;41.50;;;;;;5086332;27;20036;-77
2022/03/15 09:04:27;;;;;;;15.82;7.53;;;11.30;41.40;;;;;;5082215;27;20071;-78
2022/03/15 09:06:54;;;;;;;15.63;7.38;;;11.40;41.00;;;;;;5084452;27;20100;-79
2022/03/15 09:09:24;;;;;;;17.75;7.22;;;11.40;41.90;;;;;;5115083;27;20032;-77
2022/03/15 09:11:52;;;;;;;16.45;7.45;;;11.40;40.90;;;;;;5097477;27;20078;-79
2022/03/15 09:14:19;;;;;;;15.00;6.90;;;11.60;40.30;;;;;;5081161;27;20058;-77
2022/03/15 09:16:46;;;;;;;13.88;7.60;;;11.80;40.10;;;;;;5098619;27;20057;-76
2022/03/15 09:19:14;;;;;;;15.15;6.85;;;11.70;40.90;;;;;;5099353;27;20031;-78
2022/03/15 09:21:41;;;;;;;13.27;5.78;;;11.90;40.60;;;;;;5075735;27;20035;-79
2022/03/15 09:24:08;;;;;;;15.68;7.07;;;12.00;39.50;;;;;;5094056;27;20051;-78
2022/03/15 09:26:36;;;;;;;12.52;6.90;;;12.20;39.00;;;;;;5111793;27;20050;-78
2022/03/15 09:29:03;;;;;;;15.15;5.47;;;12.30;39.60;;;;;;5085563;27;20043;-78
2022/03/15 09:31:30;;;;;;;11.43;5.55;;;12.40;38.40;;;;;;5096499;27;20043;-79
2022/03/15 09:33:57;;;;;;;13.10;6.45;;;12.50;38.10;;;;;;5097972;27;20077;-77
2022/03/15 09:36:25;;;;;;;13.75;5.55;;;12.70;38.80;;;;;;5102635;27;20115;-77
2022/03/15 09:38:52;;;;;;;10.98;5.45;;;12.90;38.70;;;;;;5111355;27;20058;-77
2022/03/15 09:41:22;;;;;;;10.20;5.65;;;13.00;38.20;;;;;;5099912;27;20039;-77
2022/03/15 09:43:50;;;;;;;10.48;5.45;;;13.10;37.90;;;;;;5093888;27;20047;-77
2022/03/15 09:46:21;;;;;;;11.10;6.03;;;13.20;37.30;;;;;;5088283;27;20043;-77
2022/03/15 09:49:09;;;;;;;10.13;5.13;;;13.20;38.10;;;;;;5114650;27;20148;-77
2022/03/15 09:51:37;;;;;;;12.32;5.43;;;13.20;37.60;;;;;;5098006;27;21966;-77
2022/03/15 09:54:06;;;;;;;10.15;4.50;;;13.30;37.50;;;;;;5111061;27;20727;-77
2022/03/15 09:56:38;;;;;;;11.98;5.68;;;13.30;36.90;;;;;;5096116;27;20039;-77
2022/03/15 09:59:12;;;;;;;11.15;5.43;;;13.30;36.80;;;;;;5112673;27;20046;-77
2022/03/15 10:01:40;;;;;;;8.55;3.97;;;13.40;37.30;;;;;;5103099;27;20039;-77
2022/03/15 10:04:12;;;;;;;10.77;4.43;;;13.50;37.40;;;;;;5084188;27;20042;-77
2022/03/15 10:06:39;;;;;;;9.80;4.43;;;13.70;37.40;;;;;;5082209;27;21237;-77
2022/03/15 10:09:07;;;;;;;9.02;4.68;;;13.80;37.60;;;;;;5082097;27;20135;-79
2022/03/15 10:11:35;;;;;;;7.82;4.28;;;13.90;36.60;;;;;;5079215;27;20076;-77
2022/03/15 10:14:04;;;;;;;9.20;4.68;;;13.90;37.20;;;;;;5096362;27;20128;-77
2022/03/15 10:16:32;;;;;;;13.18;4.97;;;14.10;37.10;;;;;;5111868;27;21022;-77
2022/03/15 10:19:00;;;;;;;7.22;4.18;;;14.20;36.50;;;;;;5080497;27;20059;-77
2022/03/15 10:21:46;;;;;;;8.70;4.13;;;14.30;36.90;;;;;;5095060;27;20054;-77
2022/03/15 10:24:18;;;;;;;12.77;4.85;;;14.50;36.60;;;;;;5098084;27;20050;-77
2022/03/15 10:26:47;;;;;;;9.80;4.30;;;14.50;36.00;;;;;;5080871;27;20044;-77
2022/03/15 10:29:16;;;;;;;9.68;4.03;;;14.60;35.70;;;;;;5112104;27;20118;-77
2022/03/15 10:31:45;;;;;;;12.52;5.07;;;14.60;36.00;;;;;;5079890;27;20094;-78
2022/03/15 10:34:15;;;;;;;8.68;4.40;;;14.50;36.00;;;;;;5098488;27;20047;-77
2022/03/15 10:36:44;;;;;;;8.65;4.45;;;14.40;35.80;;;;;;5112658;27;20048;-77
2022/03/15 10:39:14;;;;;;;9.77;4.18;;;14.70;36.20;;;;;;5091683;28;20135;-77
2022/03/15 10:42:01;;;;;;;8.65;4.43;;;15.00;35.70;;;;;;5077046;28;20474;-77
2022/03/15 10:44:31;;;;;;;7.63;3.72;;;15.10;35.20;;;;;;5097951;28;20363;-77
2022/03/15 10:47:08;;;;;;;11.15;4.47;;;15.00;33.70;;;;;;5088763;28;20093;-77
2022/03/15 10:49:47;;;;;;;7.63;3.67;;;14.90;34.00;;;;;;5085435;28;20055;-76
2022/03/15 10:52:28;;;;;;;7.60;4.05;;;14.70;34.50;;;;;;5093249;28;21582;-76
2022/03/15 10:54:55;;;;;;;8.43;4.60;;;14.70;35.30;;;;;;5088940;28;20063;-78
2022/03/15 10:57:23;;;;;;;9.75;3.85;;;14.80;34.10;;;;;;5076431;28;20103;-74
2022/03/15 10:59:52;;;;;;;7.63;4.05;;;14.70;34.10;;;;;;5104455;28;20035;-78
2022/03/15 11:02:30;;;;;;;10.18;4.15;;;14.80;34.40;;;;;;5085162;28;20044;-77
2022/03/15 11:04:57;;;;;;;10.25;5.68;;;14.90;34.00;;;;;;5079185;28;20047;-77
2022/03/15 11:07:35;;;;;;;12.05;4.13;;;15.00;34.40;;;;;;5088752;28;20044;-77
2022/03/15 11:10:13;;;;;;;8.18;3.70;;;14.90;34.30;;;;;;5093613;28;20058;-77
2022/03/15 11:13:14;;;;;;;11.05;4.95;;;14.90;34.40;;;;;;5078145;28;20052;-78
2022/03/15 11:15:53;;;;;;;6.97;3.88;;;15.10;34.50;;;;;;5097725;28;20116;-78
2022/03/15 11:18:21;;;;;;;7.75;4.05;;;15.10;34.40;;;;;;5101874;27;20055;-78
2022/03/15 11:20:50;;;;;;;9.30;3.88;;;15.20;33.90;;;;;;5077351;28;20547;-77
2022/03/15 11:23:22;;;;;;;7.32;3.92;;;15.30;34.00;;;;;;5074398;28;20957;-75
2022/03/15 11:26:04;;;;;;;5.88;3.80;;;15.30;33.70;;;;;;5097011;28;20036;-75
2022/03/15 11:28:33;;;;;;;8.20;4.13;;;15.30;34.20;;;;;;5097423;28;20070;-75
2022/03/15 11:31:00;;;;;;;11.57;4.10;;;15.60;33.70;;;;;;5089088;28;20075;-75
2022/03/15 11:33:29;;;;;;;7.75;4.40;;;15.70;33.60;;;;;;5088292;28;20395;-74
2022/03/15 11:36:01;;;;;;;8.55;4.55;;;15.80;33.20;;;;;;5069700;28;20071;-72
2022/03/15 11:38:29;;;;;;;8.33;4.47;;;15.80;32.90;;;;;;5089653;28;20154;-75
2022/03/15 11:40:56;;;;;;;10.85;4.10;;;15.80;32.30;;;;;;5085204;28;20295;-74
2022/03/15 11:43:50;;;;;;;8.82;4.05;;;15.90;32.50;;;;;;5094259;27;20043;-74
2022/03/15 11:46:24;;;;;;;8.82;4.38;;;16.10;32.80;;;;;;5094258;28;20511;-75
2022/03/15 11:49:01;;;;;;;7.47;4.30;;;16.20;32.70;;;;;;5097590;28;20067;-76
2022/03/15 11:51:50;;;;;;;7.45;3.75;;;16.30;32.30;;;;;;5110793;27;20075;-76
2022/03/15 11:55:00;;;;;;;11.13;4.50;;;16.40;32.60;;;;;;5095915;28;20406;-76
2022/03/15 11:57:51;;;;;;;12.82;4.70;;;16.40;33.00;;;;;;5055095;28;20052;-76
2022/03/15 12:00:42;;;;;;;10.73;5.15;;;16.50;32.70;;;;;;5080326;28;20055;-75
2022/03/15 12:03:15;;;;;;;30.55;12.13;;;16.70;32.30;;;;;;5097942;28;20040;-75
2022/03/15 12:05:57;;;;;;;8.65;4.65;;;16.70;32.60;;;;;;5095060;28;20104;-75
2022/03/15 12:08:26;;;;;;;9.77;4.70;;;16.90;32.20;;;;;;5096000;28;20043;-76
2022/03/15 12:11:06;;;;;;;10.13;5.10;;;16.70;32.60;;;;;;5097187;28;20040;-75
2022/03/15 12:13:43;;;;;;;6.60;4.20;;;17.00;31.50;;;;;;5091683;28;20048;-75
2022/03/15 12:16:21;;;;;;;10.52;5.28;;;16.80;31.50;;;;;;5094854;28;20047;-75
2022/03/15 12:19:47;;;;;;;10.27;5.15;;;16.80;31.90;;;;;;5076859;28;20056;-75
2022/03/15 12:21:55;;;;;;;10.00;4.15;;;16.70;32.60;;;;;;5080520;28;20048;-75
2022/03/15 12:24:35;;;;;;;9.57;4.75;;;16.90;32.20;;;;;;5091947;28;20370;-75
2022/03/15 12:27:05;;;;;;;9.48;4.65;;;17.10;32.20;;;;;;5080988;28;20048;-75
2022/03/15 12:29:40;;;;;;;11.00;5.63;;;17.20;32.00;;;;;;5107943;27;20044;-73
2022/03/15 12:32:19;;;;;;;9.77;4.80;;;17.20;31.80;;;;;;5093737;28;20055;-78
2022/03/15 12:34:55;;;;;;;12.25;5.25;;;17.20;31.50;;;;;;5093091;28;20043;-76
2022/03/15 12:37:37;;;;;;;10.90;4.90;;;17.30;31.80;;;;;;5095538;28;20079;-77
2022/03/15 12:40:07;;;;;;;9.00;5.13;;;17.30;31.40;;;;;;5110105;27;20042;-79
2022/03/15 12:42:35;;;;;;;7.45;4.57;;;17.40;31.50;;;;;;5098221;28;20063;-78
2022/03/15 12:45:10;;;;;;;8.38;4.60;;;17.20;31.70;;;;;;5079409;28;20135;-77
2022/03/15 12:47:47;;;;;;;7.05;4.32;;;17.10;31.80;;;;;;5108562;27;20058;-76
2022/03/15 12:50:15;;;;;;;13.38;5.20;;;16.90;31.60;;;;;;5094467;28;20035;-75
2022/03/15 12:52:56;;;;;;;10.65;4.97;;;16.70;31.80;;;;;;5094156;27;20035;-77
2022/03/15 12:55:25;;;;;;;11.15;4.35;;;16.40;32.40;;;;;;5094345;28;20042;-77
2022/03/15 12:58:06;;;;;;;9.18;4.82;;;16.00;32.80;;;;;;5116102;27;20039;-78